sensor_id;sensor_type;location;lat;lon;timestamp;P1;durP1;ratioP1;P2;durP2;ratioP2
44750;SDS011;30477;48.224;11.470;2022-08-19T00:01:41;8.02;;;6.97;;
44750;SDS011;30477;48.224;11.470;2022-08-19T00:04:09;7.93;;;7.13;;
44750;SDS011;30477;48.224;11.470;2022-08-19T00:06:36;8.65;;;7.00;;
44750;SDS011;30477;48.224;11.470;2022-08-19T00:09:04;6.75;;;6.15;;
44750;SDS011;30477;48.224;11.470;2022-08-19T00:11:32;9.00;;;6.90;;
44750;SDS011;30477;48.224;11.470;2022-08-19T00:13:59;9.50;;;6.40;;
44750;SDS011;30477;48.224;11.470;2022-08-19T00:16:25;7.90;;;7.10;;
44750;SDS011;30477;48.224;11.470;2022-08-19T00:18:52;9.05;;;7.15;;
44750;SDS011;30477;48.224;11.470;2022-08-19T00:21:20;8.57;;;7.40;;
44750;SDS011;30477;48.224;11.470;2022-08-19T00:23:45;10.00;;;7.47;;
44750;SDS011;30477;48.224;11.470;2022-08-19T00:26:10;8.60;;;7.43;;
44750;SDS011;30477;48.224;11.470;2022-08-19T00:28:36;8.53;;;7.63;;
44750;SDS011;30477;48.224;11.470;2022-08-19T00:31:05;7.97;;;7.28;;
44750;SDS011;30477;48.224;11.470;2022-08-19T00:33:32;9.27;;;8.25;;
44750;SDS011;30477;48.224;11.470;2022-08-19T00:36:01;9.82;;;8.02;;
44750;SDS011;30477;48.224;11.470;2022-08-19T00:38:32;8.95;;;7.88;;
44750;SDS011;30477;48.224;11.470;2022-08-19T00:40:58;9.13;;;8.23;;
44750;SDS011;30477;48.224;11.470;2022-08-19T00:43:24;9.60;;;8.60;;
44750;SDS011;30477;48.224;11.470;2022-08-19T00:45:52;9.70;;;8.73;;
44750;SDS011;30477;48.224;11.470;2022-08-19T00:48:18;10.48;;;9.05;;
44750;SDS011;30477;48.224;11.470;2022-08-19T00:50:46;14.43;;;9.70;;
44750;SDS011;30477;48.224;11.470;2022-08-19T00:53:14;10.25;;;9.20;;
44750;SDS011;30477;48.224;11.470;2022-08-19T00:55:44;9.95;;;8.88;;
44750;SDS011;30477;48.224;11.470;2022-08-19T00:58:12;10.23;;;9.20;;
44750;SDS011;30477;48.224;11.470;2022-08-19T01:00:40;10.63;;;9.52;;
44750;SDS011;30477;48.224;11.470;2022-08-19T01:03:07;11.30;;;9.40;;
44750;SDS011;30477;48.224;11.470;2022-08-19T01:05:39;10.63;;;9.45;;
44750;SDS011;30477;48.224;11.470;2022-08-19T01:08:07;10.65;;;9.32;;
44750;SDS011;30477;48.224;11.470;2022-08-19T01:13:02;10.68;;;9.57;;
44750;SDS011;30477;48.224;11.470;2022-08-19T01:15:30;11.73;;;10.52;;
44750;SDS011;30477;48.224;11.470;2022-08-19T01:18:06;11.73;;;10.35;;
44750;SDS011;30477;48.224;11.470;2022-08-19T01:20:34;10.95;;;9.73;;
44750;SDS011;30477;48.224;11.470;2022-08-19T01:23:00;11.60;;;10.40;;
44750;SDS011;30477;48.224;11.470;2022-08-19T01:25:28;12.02;;;10.55;;
44750;SDS011;30477;48.224;11.470;2022-08-19T01:27:56;11.55;;;10.35;;
44750;SDS011;30477;48.224;11.470;2022-08-19T01:30:27;12.35;;;10.38;;
44750;SDS011;30477;48.224;11.470;2022-08-19T01:32:55;12.43;;;10.63;;
44750;SDS011;30477;48.224;11.470;2022-08-19T01:35:22;11.73;;;9.82;;
44750;SDS011;30477;48.224;11.470;2022-08-19T01:40:18;12.43;;;10.85;;
44750;SDS011;30477;48.224;11.470;2022-08-19T01:42:46;11.75;;;10.20;;
44750;SDS011;30477;48.224;11.470;2022-08-19T01:45:13;12.40;;;11.10;;
44750;SDS011;30477;48.224;11.470;2022-08-19T01:47:39;13.30;;;12.00;;
44750;SDS011;30477;48.224;11.470;2022-08-19T01:50:05;12.20;;;10.90;;
44750;SDS011;30477;48.224;11.470;2022-08-19T01:52:34;16.40;;;11.75;;
44750;SDS011;30477;48.224;11.470;2022-08-19T01:55:00;12.23;;;10.95;;
44750;SDS011;30477;48.224;11.470;2022-08-19T01:57:26;12.83;;;11.03;;
44750;SDS011;30477;48.224;11.470;2022-08-19T01:59:51;13.07;;;11.67;;
44750;SDS011;30477;48.224;11.470;2022-08-19T02:02:17;13.88;;;11.27;;
44750;SDS011;30477;48.224;11.470;2022-08-19T02:04:42;11.50;;;9.93;;
44750;SDS011;30477;48.224;11.470;2022-08-19T02:07:08;12.40;;;10.70;;
44750;SDS011;30477;48.224;11.470;2022-08-19T02:09:33;11.90;;;10.70;;
44750;SDS011;30477;48.224;11.470;2022-08-19T02:11:59;13.25;;;11.60;;
44750;SDS011;30477;48.224;11.470;2022-08-19T02:14:25;13.05;;;11.70;;
44750;SDS011;30477;48.224;11.470;2022-08-19T02:16:51;15.20;;;12.23;;
44750;SDS011;30477;48.224;11.470;2022-08-19T02:19:16;13.23;;;11.93;;
44750;SDS011;30477;48.224;11.470;2022-08-19T02:21:41;13.40;;;12.00;;
44750;SDS011;30477;48.224;11.470;2022-08-19T02:24:08;14.80;;;13.07;;
44750;SDS011;30477;48.224;11.470;2022-08-19T02:26:34;13.55;;;11.82;;
44750;SDS011;30477;48.224;11.470;2022-08-19T02:29:02;15.50;;;13.13;;
44750;SDS011;30477;48.224;11.470;2022-08-19T02:31:28;15.15;;;12.88;;
44750;SDS011;30477;48.224;11.470;2022-08-19T02:33:54;14.00;;;12.27;;
44750;SDS011;30477;48.224;11.470;2022-08-19T02:36:21;13.45;;;11.90;;
44750;SDS011;30477;48.224;11.470;2022-08-19T02:38:46;13.95;;;12.40;;
44750;SDS011;30477;48.224;11.470;2022-08-19T02:41:16;13.80;;;11.75;;
44750;SDS011;30477;48.224;11.470;2022-08-19T02:43:44;12.90;;;11.15;;
44750;SDS011;30477;48.224;11.470;2022-08-19T02:46:23;11.90;;;10.70;;
44750;SDS011;30477;48.224;11.470;2022-08-19T02:48:53;14.38;;;10.98;;
44750;SDS011;30477;48.224;11.470;2022-08-19T02:51:22;12.52;;;11.25;;
44750;SDS011;30477;48.224;11.470;2022-08-19T02:53:53;12.32;;;10.77;;
44750;SDS011;30477;48.224;11.470;2022-08-19T02:56:19;13.23;;;10.93;;
44750;SDS011;30477;48.224;11.470;2022-08-19T02:58:45;11.75;;;10.55;;
44750;SDS011;30477;48.224;11.470;2022-08-19T03:01:18;12.85;;;11.20;;
44750;SDS011;30477;48.224;11.470;2022-08-19T03:03:48;12.07;;;10.88;;
44750;SDS011;30477;48.224;11.470;2022-08-19T03:06:14;11.37;;;10.17;;
44750;SDS011;30477;48.224;11.470;2022-08-19T03:08:41;11.30;;;10.10;;
44750;SDS011;30477;48.224;11.470;2022-08-19T03:11:19;14.52;;;11.52;;
44750;SDS011;30477;48.224;11.470;2022-08-19T03:13:46;13.48;;;11.43;;
44750;SDS011;30477;48.224;11.470;2022-08-19T03:16:14;11.70;;;10.27;;
44750;SDS011;30477;48.224;11.470;2022-08-19T03:18:40;13.45;;;10.15;;
44750;SDS011;30477;48.224;11.470;2022-08-19T03:21:05;11.35;;;10.15;;
44750;SDS011;30477;48.224;11.470;2022-08-19T03:23:32;11.52;;;9.45;;
44750;SDS011;30477;48.224;11.470;2022-08-19T03:25:58;13.00;;;11.30;;
44750;SDS011;30477;48.224;11.470;2022-08-19T03:28:24;11.93;;;10.73;;
44750;SDS011;30477;48.224;11.470;2022-08-19T03:30:58;13.17;;;10.67;;
44750;SDS011;30477;48.224;11.470;2022-08-19T03:33:26;13.25;;;11.30;;
44750;SDS011;30477;48.224;11.470;2022-08-19T03:36:07;12.05;;;10.75;;
44750;SDS011;30477;48.224;11.470;2022-08-19T03:38:41;12.52;;;11.07;;
44750;SDS011;30477;48.224;11.470;2022-08-19T03:41:15;14.50;;;11.05;;
44750;SDS011;30477;48.224;11.470;2022-08-19T03:43:44;11.77;;;10.57;;
44750;SDS011;30477;48.224;11.470;2022-08-19T03:46:13;12.88;;;10.52;;
44750;SDS011;30477;48.224;11.470;2022-08-19T03:48:40;12.55;;;10.98;;
44750;SDS011;30477;48.224;11.470;2022-08-19T03:51:07;12.50;;;11.20;;
44750;SDS011;30477;48.224;11.470;2022-08-19T03:53:34;15.43;;;12.25;;
44750;SDS011;30477;48.224;11.470;2022-08-19T03:56:00;11.95;;;10.70;;
44750;SDS011;30477;48.224;11.470;2022-08-19T03:58:27;13.43;;;10.50;;
44750;SDS011;30477;48.224;11.470;2022-08-19T04:00:55;15.88;;;12.00;;
44750;SDS011;30477;48.224;11.470;2022-08-19T04:03:21;13.75;;;11.40;;
44750;SDS011;30477;48.224;11.470;2022-08-19T04:05:47;12.60;;;10.30;;
44750;SDS011;30477;48.224;11.470;2022-08-19T04:08:13;12.17;;;10.83;;
44750;SDS011;30477;48.224;11.470;2022-08-19T04:10:43;12.20;;;10.52;;
44750;SDS011;30477;48.224;11.470;2022-08-19T04:13:08;12.80;;;11.43;;
44750;SDS011;30477;48.224;11.470;2022-08-19T04:15:38;13.03;;;10.37;;
44750;SDS011;30477;48.224;11.470;2022-08-19T04:18:08;14.77;;;12.32;;
44750;SDS011;30477;48.224;11.470;2022-08-19T04:20:41;15.57;;;12.52;;
44750;SDS011;30477;48.224;11.470;2022-08-19T04:23:08;14.75;;;11.75;;
44750;SDS011;30477;48.224;11.470;2022-08-19T04:25:35;13.50;;;11.88;;
44750;SDS011;30477;48.224;11.470;2022-08-19T04:28:06;14.93;;;12.43;;
44750;SDS011;30477;48.224;11.470;2022-08-19T04:30:37;14.40;;;12.85;;
44750;SDS011;30477;48.224;11.470;2022-08-19T04:33:03;16.60;;;13.60;;
44750;SDS011;30477;48.224;11.470;2022-08-19T04:35:34;14.73;;;13.00;;
44750;SDS011;30477;48.224;11.470;2022-08-19T04:38:03;17.52;;;15.15;;
44750;SDS011;30477;48.224;11.470;2022-08-19T04:40:29;15.55;;;13.90;;
44750;SDS011;30477;48.224;11.470;2022-08-19T04:43:13;15.93;;;13.68;;
44750;SDS011;30477;48.224;11.470;2022-08-19T04:45:39;15.90;;;13.65;;
44750;SDS011;30477;48.224;11.470;2022-08-19T04:48:05;17.23;;;14.30;;
44750;SDS011;30477;48.224;11.470;2022-08-19T04:50:30;15.77;;;14.00;;
44750;SDS011;30477;48.224;11.470;2022-08-19T04:52:56;16.67;;;14.97;;
44750;SDS011;30477;48.224;11.470;2022-08-19T04:55:21;16.10;;;13.63;;
44750;SDS011;30477;48.224;11.470;2022-08-19T04:57:47;17.25;;;14.55;;
44750;SDS011;30477;48.224;11.470;2022-08-19T05:00:13;16.05;;;14.38;;
44750;SDS011;30477;48.224;11.470;2022-08-19T05:02:39;18.87;;;14.23;;
44750;SDS011;30477;48.224;11.470;2022-08-19T05:05:04;17.50;;;14.20;;
44750;SDS011;30477;48.224;11.470;2022-08-19T05:07:31;15.65;;;13.70;;
44750;SDS011;30477;48.224;11.470;2022-08-19T05:09:56;15.20;;;13.33;;
44750;SDS011;30477;48.224;11.470;2022-08-19T05:12:22;14.40;;;12.20;;
44750;SDS011;30477;48.224;11.470;2022-08-19T05:14:47;17.33;;;13.23;;
44750;SDS011;30477;48.224;11.470;2022-08-19T05:17:14;15.50;;;12.80;;
44750;SDS011;30477;48.224;11.470;2022-08-19T05:19:40;17.02;;;12.65;;
44750;SDS011;30477;48.224;11.470;2022-08-19T05:22:23;16.83;;;13.82;;
44750;SDS011;30477;48.224;11.470;2022-08-19T05:25:10;17.05;;;12.75;;
44750;SDS011;30477;48.224;11.470;2022-08-19T05:27:38;15.60;;;13.57;;
44750;SDS011;30477;48.224;11.470;2022-08-19T05:30:04;16.30;;;13.50;;
44750;SDS011;30477;48.224;11.470;2022-08-19T05:32:30;16.10;;;13.57;;
44750;SDS011;30477;48.224;11.470;2022-08-19T05:34:55;15.30;;;13.70;;
44750;SDS011;30477;48.224;11.470;2022-08-19T05:37:21;17.15;;;13.60;;
44750;SDS011;30477;48.224;11.470;2022-08-19T05:39:47;16.92;;;14.00;;
44750;SDS011;30477;48.224;11.470;2022-08-19T05:42:13;16.08;;;13.48;;
44750;SDS011;30477;48.224;11.470;2022-08-19T05:44:41;15.38;;;13.77;;
44750;SDS011;30477;48.224;11.470;2022-08-19T05:47:12;17.15;;;14.52;;
44750;SDS011;30477;48.224;11.470;2022-08-19T05:49:39;16.15;;;13.93;;
44750;SDS011;30477;48.224;11.470;2022-08-19T05:52:06;18.17;;;15.15;;
44750;SDS011;30477;48.224;11.470;2022-08-19T05:54:33;17.55;;;15.23;;
44750;SDS011;30477;48.224;11.470;2022-08-19T05:57:01;19.90;;;15.35;;
44750;SDS011;30477;48.224;11.470;2022-08-19T06:01:52;18.07;;;15.40;;
44750;SDS011;30477;48.224;11.470;2022-08-19T06:04:21;18.08;;;16.13;;
44750;SDS011;30477;48.224;11.470;2022-08-19T06:06:49;18.88;;;16.50;;
44750;SDS011;30477;48.224;11.470;2022-08-19T06:09:17;19.17;;;16.67;;
44750;SDS011;30477;48.224;11.470;2022-08-19T06:11:44;18.50;;;16.05;;
44750;SDS011;30477;48.224;11.470;2022-08-19T06:14:16;19.52;;;17.42;;
44750;SDS011;30477;48.224;11.470;2022-08-19T06:16:43;20.73;;;17.05;;
44750;SDS011;30477;48.224;11.470;2022-08-19T06:19:14;19.13;;;17.13;;
44750;SDS011;30477;48.224;11.470;2022-08-19T06:21:42;18.02;;;16.13;;
44750;SDS011;30477;48.224;11.470;2022-08-19T06:24:10;20.25;;;17.00;;
44750;SDS011;30477;48.224;11.470;2022-08-19T06:26:39;19.77;;;17.65;;
44750;SDS011;30477;48.224;11.470;2022-08-19T06:29:07;22.42;;;19.23;;
44750;SDS011;30477;48.224;11.470;2022-08-19T06:31:34;24.35;;;21.58;;
44750;SDS011;30477;48.224;11.470;2022-08-19T06:34:02;26.00;;;21.55;;
44750;SDS011;30477;48.224;11.470;2022-08-19T06:36:30;22.85;;;19.98;;
44750;SDS011;30477;48.224;11.470;2022-08-19T06:38:59;23.63;;;19.55;;
44750;SDS011;30477;48.224;11.470;2022-08-19T06:41:29;21.60;;;19.30;;
44750;SDS011;30477;48.224;11.470;2022-08-19T06:46:21;24.52;;;20.13;;
44750;SDS011;30477;48.224;11.470;2022-08-19T06:48:46;26.20;;;21.95;;
44750;SDS011;30477;48.224;11.470;2022-08-19T06:51:13;23.73;;;21.02;;
44750;SDS011;30477;48.224;11.470;2022-08-19T06:53:43;24.42;;;21.60;;
44750;SDS011;30477;48.224;11.470;2022-08-19T06:56:11;27.85;;;22.52;;
44750;SDS011;30477;48.224;11.470;2022-08-19T07:01:03;22.90;;;19.88;;
44750;SDS011;30477;48.224;11.470;2022-08-19T07:03:33;27.48;;;21.80;;
44750;SDS011;30477;48.224;11.470;2022-08-19T07:06:07;28.05;;;22.48;;
44750;SDS011;30477;48.224;11.470;2022-08-19T07:08:39;27.50;;;23.33;;
44750;SDS011;30477;48.224;11.470;2022-08-19T07:13:36;26.95;;;22.67;;
44750;SDS011;30477;48.224;11.470;2022-08-19T07:16:03;27.42;;;23.23;;
44750;SDS011;30477;48.224;11.470;2022-08-19T07:18:32;28.00;;;23.48;;
44750;SDS011;30477;48.224;11.470;2022-08-19T07:21:08;28.70;;;23.23;;
44750;SDS011;30477;48.224;11.470;2022-08-19T07:23:42;27.85;;;24.02;;
44750;SDS011;30477;48.224;11.470;2022-08-19T07:26:09;31.15;;;24.90;;
44750;SDS011;30477;48.224;11.470;2022-08-19T07:28:41;27.65;;;24.15;;
44750;SDS011;30477;48.224;11.470;2022-08-19T07:31:09;31.20;;;25.10;;
44750;SDS011;30477;48.224;11.470;2022-08-19T07:33:37;29.50;;;25.38;;
44750;SDS011;30477;48.224;11.470;2022-08-19T07:36:06;29.08;;;25.45;;
44750;SDS011;30477;48.224;11.470;2022-08-19T07:38:35;30.08;;;25.48;;
44750;SDS011;30477;48.224;11.470;2022-08-19T07:41:00;31.43;;;25.83;;
44750;SDS011;30477;48.224;11.470;2022-08-19T07:43:26;31.13;;;25.70;;
44750;SDS011;30477;48.224;11.470;2022-08-19T07:45:53;34.45;;;26.60;;
44750;SDS011;30477;48.224;11.470;2022-08-19T07:48:22;35.55;;;27.20;;
44750;SDS011;30477;48.224;11.470;2022-08-19T07:50:53;31.95;;;25.63;;
44750;SDS011;30477;48.224;11.470;2022-08-19T07:53:23;34.08;;;27.77;;
44750;SDS011;30477;48.224;11.470;2022-08-19T07:55:49;34.42;;;26.88;;
44750;SDS011;30477;48.224;11.470;2022-08-19T07:58:17;32.67;;;27.40;;
44750;SDS011;30477;48.224;11.470;2022-08-19T08:00:44;34.42;;;27.38;;
44750;SDS011;30477;48.224;11.470;2022-08-19T08:03:12;38.95;;;29.70;;
44750;SDS011;30477;48.224;11.470;2022-08-19T08:05:39;37.88;;;29.92;;
44750;SDS011;30477;48.224;11.470;2022-08-19T08:08:23;37.38;;;31.05;;
44750;SDS011;30477;48.224;11.470;2022-08-19T08:11:00;39.00;;;30.13;;
44750;SDS011;30477;48.224;11.470;2022-08-19T08:13:26;39.00;;;30.30;;
44750;SDS011;30477;48.224;11.470;2022-08-19T08:15:52;37.95;;;30.98;;
44750;SDS011;30477;48.224;11.470;2022-08-19T08:18:18;34.40;;;28.53;;
44750;SDS011;30477;48.224;11.470;2022-08-19T08:20:45;37.72;;;30.30;;
44750;SDS011;30477;48.224;11.470;2022-08-19T08:23:11;39.17;;;30.85;;
44750;SDS011;30477;48.224;11.470;2022-08-19T08:25:50;39.88;;;31.80;;
44750;SDS011;30477;48.224;11.470;2022-08-19T08:28:21;38.92;;;31.02;;
44750;SDS011;30477;48.224;11.470;2022-08-19T08:30:47;40.17;;;31.25;;
44750;SDS011;30477;48.224;11.470;2022-08-19T08:33:17;37.90;;;31.30;;
44750;SDS011;30477;48.224;11.470;2022-08-19T08:35:48;41.60;;;31.55;;
44750;SDS011;30477;48.224;11.470;2022-08-19T08:38:14;36.55;;;30.75;;
44750;SDS011;30477;48.224;11.470;2022-08-19T08:48:36;41.13;;;30.10;;
44750;SDS011;30477;48.224;11.470;2022-08-19T08:51:10;39.97;;;31.30;;
44750;SDS011;30477;48.224;11.470;2022-08-19T08:53:40;40.92;;;30.92;;
44750;SDS011;30477;48.224;11.470;2022-08-19T08:56:08;37.05;;;30.85;;
44750;SDS011;30477;48.224;11.470;2022-08-19T08:58:49;41.47;;;32.15;;
44750;SDS011;30477;48.224;11.470;2022-08-19T09:01:16;40.92;;;31.58;;
44750;SDS011;30477;48.224;11.470;2022-08-19T09:03:42;41.60;;;31.30;;
44750;SDS011;30477;48.224;11.470;2022-08-19T09:14:46;39.70;;;31.45;;
44750;SDS011;30477;48.224;11.470;2022-08-19T09:17:27;39.70;;;32.33;;
44750;SDS011;30477;48.224;11.470;2022-08-19T09:20:06;42.28;;;33.72;;
44750;SDS011;30477;48.224;11.470;2022-08-19T09:22:34;40.42;;;31.40;;
44750;SDS011;30477;48.224;11.470;2022-08-19T09:25:00;38.60;;;31.75;;
44750;SDS011;30477;48.224;11.470;2022-08-19T09:27:26;37.67;;;30.85;;
44750;SDS011;30477;48.224;11.470;2022-08-19T09:29:53;39.65;;;31.02;;
44750;SDS011;30477;48.224;11.470;2022-08-19T09:32:20;40.90;;;32.53;;
44750;SDS011;30477;48.224;11.470;2022-08-19T09:34:47;40.25;;;31.08;;
44750;SDS011;30477;48.224;11.470;2022-08-19T09:37:12;41.83;;;31.70;;
44750;SDS011;30477;48.224;11.470;2022-08-19T09:39:39;42.22;;;33.63;;
44750;SDS011;30477;48.224;11.470;2022-08-19T09:42:08;39.80;;;31.73;;
44750;SDS011;30477;48.224;11.470;2022-08-19T09:44:40;39.10;;;30.65;;
44750;SDS011;30477;48.224;11.470;2022-08-19T09:47:06;41.13;;;31.88;;
44750;SDS011;30477;48.224;11.470;2022-08-19T09:49:33;40.53;;;32.58;;
44750;SDS011;30477;48.224;11.470;2022-08-19T09:51:58;39.75;;;32.17;;
44750;SDS011;30477;48.224;11.470;2022-08-19T09:54:24;42.10;;;32.43;;
44750;SDS011;30477;48.224;11.470;2022-08-19T09:56:50;41.88;;;32.50;;
44750;SDS011;30477;48.224;11.470;2022-08-19T10:01:42;43.63;;;33.20;;
44750;SDS011;30477;48.224;11.470;2022-08-19T10:04:07;43.00;;;31.60;;
44750;SDS011;30477;48.224;11.470;2022-08-19T10:06:37;45.80;;;34.13;;
44750;SDS011;30477;48.224;11.470;2022-08-19T10:09:04;59.28;;;44.92;;
44750;SDS011;30477;48.224;11.470;2022-08-19T10:11:32;39.15;;;32.05;;
44750;SDS011;30477;48.224;11.470;2022-08-19T10:13:59;44.72;;;33.42;;
44750;SDS011;30477;48.224;11.470;2022-08-19T10:16:25;44.90;;;34.92;;
44750;SDS011;30477;48.224;11.470;2022-08-19T10:18:51;40.83;;;31.63;;
44750;SDS011;30477;48.224;11.470;2022-08-19T10:21:28;44.67;;;31.85;;
44750;SDS011;30477;48.224;11.470;2022-08-19T10:23:56;40.90;;;31.17;;
44750;SDS011;30477;48.224;11.470;2022-08-19T10:26:24;40.65;;;31.52;;
44750;SDS011;30477;48.224;11.470;2022-08-19T10:28:51;40.65;;;29.70;;
44750;SDS011;30477;48.224;11.470;2022-08-19T10:31:20;43.22;;;31.58;;
44750;SDS011;30477;48.224;11.470;2022-08-19T10:33:48;34.30;;;27.42;;
44750;SDS011;30477;48.224;11.470;2022-08-19T10:36:20;35.78;;;26.05;;
44750;SDS011;30477;48.224;11.470;2022-08-19T10:38:48;32.50;;;27.05;;
44750;SDS011;30477;48.224;11.470;2022-08-19T10:41:19;32.63;;;26.30;;
44750;SDS011;30477;48.224;11.470;2022-08-19T10:43:49;31.17;;;23.58;;
44750;SDS011;30477;48.224;11.470;2022-08-19T10:46:17;24.10;;;19.00;;
44750;SDS011;30477;48.224;11.470;2022-08-19T10:48:43;21.15;;;17.17;;
44750;SDS011;30477;48.224;11.470;2022-08-19T10:51:09;21.67;;;16.40;;
44750;SDS011;30477;48.224;11.470;2022-08-19T10:53:53;17.63;;;13.38;;
44750;SDS011;30477;48.224;11.470;2022-08-19T10:56:20;15.45;;;12.80;;
44750;SDS011;30477;48.224;11.470;2022-08-19T10:59:04;11.73;;;9.70;;
44750;SDS011;30477;48.224;11.470;2022-08-19T11:01:31;7.53;;;6.00;;
44750;SDS011;30477;48.224;11.470;2022-08-19T11:03:59;8.52;;;7.63;;
44750;SDS011;30477;48.224;11.470;2022-08-19T11:06:26;7.00;;;6.18;;
44750;SDS011;30477;48.224;11.470;2022-08-19T11:08:52;6.78;;;5.90;;
44750;SDS011;30477;48.224;11.470;2022-08-19T11:11:19;6.65;;;5.50;;
44750;SDS011;30477;48.224;11.470;2022-08-19T11:13:44;5.13;;;4.63;;
44750;SDS011;30477;48.224;11.470;2022-08-19T11:16:18;4.10;;;3.75;;
44750;SDS011;30477;48.224;11.470;2022-08-19T11:18:50;4.50;;;4.10;;
44750;SDS011;30477;48.224;11.470;2022-08-19T11:21:19;5.63;;;4.70;;
44750;SDS011;30477;48.224;11.470;2022-08-19T11:23:47;4.40;;;4.00;;
44750;SDS011;30477;48.224;11.470;2022-08-19T11:26:15;4.63;;;4.22;;
44750;SDS011;30477;48.224;11.470;2022-08-19T11:28:42;7.88;;;3.90;;
44750;SDS011;30477;48.224;11.470;2022-08-19T11:31:14;3.90;;;3.50;;
44750;SDS011;30477;48.224;11.470;2022-08-19T11:33:43;4.78;;;4.38;;
44750;SDS011;30477;48.224;11.470;2022-08-19T11:36:09;4.50;;;4.10;;
44750;SDS011;30477;48.224;11.470;2022-08-19T11:38:35;4.78;;;4.28;;
44750;SDS011;30477;48.224;11.470;2022-08-19T11:41:03;5.68;;;4.57;;
44750;SDS011;30477;48.224;11.470;2022-08-19T11:43:52;4.05;;;3.65;;
44750;SDS011;30477;48.224;11.470;2022-08-19T11:46:21;3.35;;;3.00;;
44750;SDS011;30477;48.224;11.470;2022-08-19T11:48:47;3.25;;;2.97;;
44750;SDS011;30477;48.224;11.470;2022-08-19T11:51:15;3.33;;;2.80;;
44750;SDS011;30477;48.224;11.470;2022-08-19T11:53:43;3.65;;;2.90;;
44750;SDS011;30477;48.224;11.470;2022-08-19T11:56:09;3.80;;;2.40;;
44750;SDS011;30477;48.224;11.470;2022-08-19T11:58:35;2.55;;;2.35;;
44750;SDS011;30477;48.224;11.470;2022-08-19T12:03:29;2.88;;;2.67;;
44750;SDS011;30477;48.224;11.470;2022-08-19T12:05:55;2.50;;;2.30;;
44750;SDS011;30477;48.224;11.470;2022-08-19T12:08:21;2.50;;;2.30;;
44750;SDS011;30477;48.224;11.470;2022-08-19T12:10:47;4.13;;;2.40;;
44750;SDS011;30477;48.224;11.470;2022-08-19T12:13:12;2.97;;;2.67;;
44750;SDS011;30477;48.224;11.470;2022-08-19T12:15:43;2.85;;;2.65;;
44750;SDS011;30477;48.224;11.470;2022-08-19T12:18:10;2.90;;;2.70;;
44750;SDS011;30477;48.224;11.470;2022-08-19T12:20:37;3.15;;;2.85;;
44750;SDS011;30477;48.224;11.470;2022-08-19T12:23:05;2.45;;;2.25;;
44750;SDS011;30477;48.224;11.470;2022-08-19T12:25:30;2.28;;;2.08;;
44750;SDS011;30477;48.224;11.470;2022-08-19T12:27:56;2.45;;;2.25;;
44750;SDS011;30477;48.224;11.470;2022-08-19T12:30:22;2.40;;;2.20;;
44750;SDS011;30477;48.224;11.470;2022-08-19T12:32:48;4.97;;;3.38;;
44750;SDS011;30477;48.224;11.470;2022-08-19T12:35:13;3.80;;;2.97;;
44750;SDS011;30477;48.224;11.470;2022-08-19T12:37:39;2.20;;;2.00;;
44750;SDS011;30477;48.224;11.470;2022-08-19T12:40:09;3.70;;;2.45;;
44750;SDS011;30477;48.224;11.470;2022-08-19T12:42:36;12.40;;;6.13;;
44750;SDS011;30477;48.224;11.470;2022-08-19T12:45:05;4.20;;;2.97;;
44750;SDS011;30477;48.224;11.470;2022-08-19T12:47:30;2.92;;;2.40;;
44750;SDS011;30477;48.224;11.470;2022-08-19T12:49:56;2.70;;;2.50;;
44750;SDS011;30477;48.224;11.470;2022-08-19T12:52:23;2.43;;;2.23;;
44750;SDS011;30477;48.224;11.470;2022-08-19T12:54:50;2.42;;;2.22;;
44750;SDS011;30477;48.224;11.470;2022-08-19T12:57:17;2.28;;;2.10;;
44750;SDS011;30477;48.224;11.470;2022-08-19T12:59:42;2.57;;;2.07;;
44750;SDS011;30477;48.224;11.470;2022-08-19T13:02:07;2.00;;;1.90;;
44750;SDS011;30477;48.224;11.470;2022-08-19T13:04:33;2.30;;;2.10;;
44750;SDS011;30477;48.224;11.470;2022-08-19T13:07:01;2.55;;;2.28;;
44750;SDS011;30477;48.224;11.470;2022-08-19T13:09:27;3.05;;;2.75;;
44750;SDS011;30477;48.224;11.470;2022-08-19T13:11:52;2.50;;;2.30;;
44750;SDS011;30477;48.224;11.470;2022-08-19T13:14:18;2.30;;;2.10;;
44750;SDS011;30477;48.224;11.470;2022-08-19T13:16:43;2.75;;;2.53;;
44750;SDS011;30477;48.224;11.470;2022-08-19T13:19:09;2.90;;;2.70;;
44750;SDS011;30477;48.224;11.470;2022-08-19T13:21:35;2.95;;;2.67;;
44750;SDS011;30477;48.224;11.470;2022-08-19T13:24:01;2.75;;;2.45;;
44750;SDS011;30477;48.224;11.470;2022-08-19T13:26:26;3.05;;;2.75;;
44750;SDS011;30477;48.224;11.470;2022-08-19T13:28:52;3.87;;;2.80;;
44750;SDS011;30477;48.224;11.470;2022-08-19T13:31:36;3.42;;;2.97;;
44750;SDS011;30477;48.224;11.470;2022-08-19T13:34:30;3.67;;;3.38;;
44750;SDS011;30477;48.224;11.470;2022-08-19T13:36:58;5.37;;;4.40;;
44750;SDS011;30477;48.224;11.470;2022-08-19T13:39:25;4.38;;;3.97;;
44750;SDS011;30477;48.224;11.470;2022-08-19T13:41:50;5.83;;;5.00;;
44750;SDS011;30477;48.224;11.470;2022-08-19T13:44:16;5.67;;;5.07;;
44750;SDS011;30477;48.224;11.470;2022-08-19T13:46:45;4.72;;;4.28;;
44750;SDS011;30477;48.224;11.470;2022-08-19T13:49:12;5.10;;;4.63;;
44750;SDS011;30477;48.224;11.470;2022-08-19T13:51:40;6.82;;;5.40;;
44750;SDS011;30477;48.224;11.470;2022-08-19T13:54:06;6.57;;;5.18;;
44750;SDS011;30477;48.224;11.470;2022-08-19T13:56:33;7.43;;;5.47;;
44750;SDS011;30477;48.224;11.470;2022-08-19T13:58:59;5.95;;;5.35;;
44750;SDS011;30477;48.224;11.470;2022-08-19T14:01:25;6.05;;;5.45;;
44750;SDS011;30477;48.224;11.470;2022-08-19T14:03:51;6.25;;;5.20;;
44750;SDS011;30477;48.224;11.470;2022-08-19T14:06:17;6.35;;;5.75;;
44750;SDS011;30477;48.224;11.470;2022-08-19T14:08:43;5.28;;;4.78;;
44750;SDS011;30477;48.224;11.470;2022-08-19T14:11:09;6.87;;;5.67;;
44750;SDS011;30477;48.224;11.470;2022-08-19T14:13:34;7.35;;;5.57;;
44750;SDS011;30477;48.224;11.470;2022-08-19T14:16:01;6.00;;;5.43;;
44750;SDS011;30477;48.224;11.470;2022-08-19T14:18:32;7.18;;;6.47;;
44750;SDS011;30477;48.224;11.470;2022-08-19T14:20:57;6.40;;;5.80;;
44750;SDS011;30477;48.224;11.470;2022-08-19T14:23:22;6.93;;;6.23;;
44750;SDS011;30477;48.224;11.470;2022-08-19T14:25:48;6.53;;;5.60;;
44750;SDS011;30477;48.224;11.470;2022-08-19T14:28:13;6.53;;;5.67;;
44750;SDS011;30477;48.224;11.470;2022-08-19T14:30:38;6.77;;;6.03;;
44750;SDS011;30477;48.224;11.470;2022-08-19T14:33:04;6.30;;;5.70;;
44750;SDS011;30477;48.224;11.470;2022-08-19T14:35:32;6.50;;;5.82;;
44750;SDS011;30477;48.224;11.470;2022-08-19T14:38:02;5.78;;;5.28;;
44750;SDS011;30477;48.224;11.470;2022-08-19T14:40:30;6.78;;;6.18;;
44750;SDS011;30477;48.224;11.470;2022-08-19T14:42:57;7.13;;;6.05;;
44750;SDS011;30477;48.224;11.470;2022-08-19T14:45:29;7.35;;;6.57;;
44750;SDS011;30477;48.224;11.470;2022-08-19T14:47:59;7.22;;;6.53;;
44750;SDS011;30477;48.224;11.470;2022-08-19T14:50:25;6.78;;;6.10;;
44750;SDS011;30477;48.224;11.470;2022-08-19T14:52:57;7.40;;;6.70;;
44750;SDS011;30477;48.224;11.470;2022-08-19T14:55:25;8.23;;;7.43;;
44750;SDS011;30477;48.224;11.470;2022-08-19T14:57:50;8.65;;;7.70;;
44750;SDS011;30477;48.224;11.470;2022-08-19T15:00:16;10.25;;;9.25;;